createdAt,value
2024-03-05T00:01:10.372Z,3.10
2024-03-05T00:03:37.013Z,3.27
2024-03-05T00:06:03.746Z,3.86
2024-03-05T00:08:30.319Z,3.80
2024-03-05T00:10:57.122Z,3.64
2024-03-05T00:13:25.872Z,3.69
2024-03-05T00:15:53.423Z,3.44
2024-03-05T00:18:22.136Z,2.65
2024-03-05T00:20:48.823Z,2.71
2024-03-05T00:23:15.453Z,2.59
2024-03-05T00:25:42.150Z,3.02
2024-03-05T00:28:08.865Z,3.65
2024-03-05T00:30:35.466Z,3.91
2024-03-05T00:33:02.153Z,3.92
2024-03-05T00:35:29.402Z,2.55
2024-03-05T00:37:56.039Z,3.07
2024-03-05T00:40:22.712Z,3.50
2024-03-05T00:42:49.370Z,3.48
2024-03-05T00:45:18.593Z,3.78
2024-03-05T00:47:45.301Z,3.08
2024-03-05T00:50:14.537Z,3.09
2024-03-05T00:52:41.432Z,3.39
2024-03-05T00:55:08.832Z,3.20
2024-03-05T00:57:36.194Z,3.53
2024-03-05T01:00:02.803Z,3.70
2024-03-05T01:02:29.584Z,3.26
2024-03-05T01:04:56.321Z,3.36
2024-03-05T01:07:23.327Z,3.18
2024-03-05T01:09:50.538Z,3.42
2024-03-05T01:12:17.728Z,3.68
2024-03-05T01:14:45.895Z,3.82
2024-03-05T01:17:13.928Z,3.71
2024-03-05T01:19:40.789Z,3.60
2024-03-05T01:22:07.439Z,3.50
2024-03-05T01:24:34.020Z,3.61
2024-03-05T01:27:00.694Z,2.49
2024-03-05T01:29:27.353Z,3.39
2024-03-05T01:31:58.119Z,3.34
2024-03-05T01:34:25.065Z,3.96
2024-03-05T01:36:51.950Z,3.74
2024-03-05T01:39:22.568Z,3.69
2024-03-05T01:41:49.187Z,3.42
2024-03-05T01:44:16.461Z,3.43
2024-03-05T01:46:43.410Z,3.21
2024-03-05T01:49:10.577Z,3.34
2024-03-05T01:51:38.839Z,3.61
2024-03-05T01:54:07.274Z,3.35
2024-03-05T01:56:34.051Z,3.27
2024-03-05T01:59:01.332Z,3.33
2024-03-05T02:01:28.313Z,2.85
2024-03-05T02:03:55.232Z,3.59
2024-03-05T02:06:22.945Z,2.99
2024-03-05T02:08:49.751Z,2.90
2024-03-05T02:11:17.353Z,3.19
2024-03-05T02:13:44.421Z,3.60
2024-03-05T02:16:11.182Z,3.19
2024-03-05T02:18:37.811Z,3.51
2024-03-05T02:21:04.609Z,3.13
2024-03-05T02:23:31.283Z,2.17
2024-03-05T02:25:58.240Z,2.40
2024-03-05T02:28:24.981Z,2.50
2024-03-05T02:30:52.000Z,2.55
2024-03-05T02:33:20.224Z,3.29
2024-03-05T02:35:47.683Z,2.60
2024-03-05T02:38:14.873Z,2.97
2024-03-05T02:40:41.572Z,3.45
2024-03-05T02:43:08.272Z,3.54
2024-03-05T02:45:35.021Z,3.49
2024-03-05T02:48:05.068Z,3.22
2024-03-05T02:50:31.906Z,2.92
2024-03-05T02:52:58.794Z,2.21
2024-03-05T02:55:25.532Z,2.58
2024-03-05T02:57:52.287Z,1.99
2024-03-05T03:00:21.951Z,2.48
2024-03-05T03:02:52.225Z,3.18
2024-03-05T03:05:22.420Z,3.23
2024-03-05T03:07:49.318Z,2.26
2024-03-05T03:10:16.280Z,2.83
2024-03-05T03:12:43.472Z,3.12
2024-03-05T03:15:10.220Z,2.98
2024-03-05T03:17:39.487Z,2.89
2024-03-05T03:20:08.952Z,2.44
2024-03-05T03:22:36.161Z,2.41
2024-03-05T03:25:02.884Z,2.80
2024-03-05T03:27:29.729Z,2.59
2024-03-05T03:29:56.391Z,2.61
2024-03-05T03:32:23.008Z,2.99
2024-03-05T03:34:49.709Z,3.16
2024-03-05T03:37:16.444Z,3.35
2024-03-05T03:39:43.751Z,3.05
2024-03-05T03:42:13.301Z,3.21
2024-03-05T03:44:40.512Z,2.88
2024-03-05T03:47:08.558Z,2.26
2024-03-05T03:49:35.237Z,1.64
2024-03-05T03:52:01.893Z,1.91
2024-03-05T03:54:28.520Z,2.49
2024-03-05T03:56:55.607Z,2.53
2024-03-05T03:59:22.288Z,2.70
2024-03-05T04:01:49.766Z,2.92
2024-03-05T04:04:16.916Z,3.22
2024-03-05T04:06:43.894Z,2.34
2024-03-05T04:09:10.638Z,2.53
2024-03-05T04:11:40.236Z,2.77
2024-03-05T04:14:06.978Z,3.40
2024-03-05T04:16:33.775Z,2.79
2024-03-05T04:19:00.422Z,2.20
2024-03-05T04:21:27.375Z,2.58
2024-03-05T04:23:54.016Z,3.14
2024-03-05T04:26:28.105Z,2.70
2024-03-05T04:28:56.254Z,3.03
2024-03-05T04:31:37.537Z,2.93
2024-03-05T04:34:08.722Z,2.91
2024-03-05T04:36:38.948Z,3.37
2024-03-05T04:39:07.621Z,3.31
2024-03-05T04:41:34.357Z,2.96
2024-03-05T04:44:01.228Z,2.58
2024-03-05T04:46:28.005Z,2.44
2024-03-05T04:48:55.539Z,2.69
2024-03-05T04:51:22.241Z,3.18
2024-03-05T04:53:49.136Z,3.00
2024-03-05T04:56:15.759Z,3.09
2024-03-05T04:58:42.479Z,2.22
2024-03-05T05:01:09.530Z,2.99
2024-03-05T05:03:36.197Z,3.22
2024-03-05T05:06:02.891Z,3.39
2024-03-05T05:08:29.554Z,2.77
2024-03-05T05:10:56.700Z,2.65
2024-03-05T05:13:23.492Z,2.90
2024-03-05T05:15:50.302Z,3.06
2024-03-05T05:18:17.062Z,3.44
2024-03-05T05:20:44.357Z,2.36
2024-03-05T05:23:11.049Z,3.15
2024-03-05T05:25:38.650Z,2.53
2024-03-05T05:28:06.611Z,2.56
2024-03-05T05:30:33.896Z,3.02
2024-03-05T05:33:00.667Z,3.06
2024-03-05T05:35:27.388Z,2.58
2024-03-05T05:37:54.145Z,2.37
2024-03-05T05:40:21.962Z,2.47
2024-03-05T05:42:49.722Z,2.81
2024-03-05T05:45:16.358Z,2.01
2024-03-05T05:47:50.379Z,2.29
2024-03-05T05:50:20.359Z,2.30
2024-03-05T05:52:48.492Z,2.46
2024-03-05T05:55:16.693Z,2.69
2024-03-05T05:57:47.546Z,2.49
2024-03-05T06:00:24.337Z,2.49
2024-03-05T06:02:54.536Z,2.97
2024-03-05T06:05:24.120Z,3.18
2024-03-05T06:07:51.318Z,2.62
2024-03-05T06:10:18.567Z,2.75
2024-03-05T06:12:46.527Z,2.74
2024-03-05T06:15:13.432Z,3.01
2024-03-05T06:17:40.960Z,3.46
2024-03-05T06:20:12.972Z,3.26
2024-03-05T06:22:40.708Z,3.56
2024-03-05T06:25:09.307Z,3.61
2024-03-05T06:27:39.448Z,3.48
2024-03-05T06:30:09.658Z,3.25
2024-03-05T06:32:42.613Z,3.30
2024-03-05T06:35:12.200Z,3.44
2024-03-05T06:37:48.248Z,3.61
2024-03-05T06:40:17.626Z,3.21
2024-03-05T06:42:53.185Z,3.60
2024-03-05T06:45:26.286Z,2.61
2024-03-05T06:48:11.582Z,2.67
2024-03-05T06:50:43.907Z,3.27
2024-03-05T06:53:30.515Z,3.61
2024-03-05T06:56:16.252Z,3.33
2024-03-05T06:58:43.985Z,3.32
2024-03-05T07:01:10.782Z,2.95
2024-03-05T07:03:38.558Z,3.40
2024-03-05T07:06:08.382Z,3.63
2024-03-05T07:08:41.420Z,3.08
2024-03-05T07:11:12.071Z,3.40
2024-03-05T07:13:44.766Z,3.83
2024-03-05T07:16:18.540Z,3.73
2024-03-05T07:18:48.694Z,3.61
2024-03-05T07:21:16.088Z,3.69
2024-03-05T07:23:42.700Z,3.35
2024-03-05T07:26:09.518Z,4.11
2024-03-05T07:28:38.661Z,4.30
2024-03-05T07:31:05.300Z,4.34
2024-03-05T07:33:32.489Z,3.84
2024-03-05T07:35:59.157Z,3.37
2024-03-05T07:38:25.890Z,3.79
2024-03-05T07:40:52.708Z,3.63
2024-03-05T07:43:19.649Z,3.79
2024-03-05T07:45:48.817Z,3.03
2024-03-05T07:48:17.233Z,3.06
2024-03-05T07:50:44.667Z,2.99
2024-03-05T07:53:11.462Z,3.36
2024-03-05T07:55:46.375Z,3.32
2024-03-05T07:58:14.489Z,2.96
2024-03-05T08:00:41.949Z,2.23
2024-03-05T08:03:08.781Z,2.72
2024-03-05T08:05:36.239Z,3.35
2024-03-05T08:08:03.730Z,3.08
2024-03-05T08:10:30.677Z,2.90
2024-03-05T08:12:57.390Z,2.55
2024-03-05T08:15:27.656Z,2.76
2024-03-05T08:17:55.204Z,3.24
2024-03-05T08:20:26.666Z,3.64
2024-03-05T08:22:54.262Z,3.58
2024-03-05T08:25:21.301Z,3.46
2024-03-05T08:27:48.698Z,3.57
2024-03-05T08:30:20.993Z,3.82
2024-03-05T08:32:51.073Z,3.83
2024-03-05T08:35:17.818Z,3.45
2024-03-05T08:37:46.778Z,3.58
2024-03-05T08:40:16.104Z,3.38
2024-03-05T08:42:43.703Z,3.85
2024-03-05T08:45:11.285Z,4.21
2024-03-05T08:47:38.277Z,3.09
2024-03-05T08:50:05.756Z,4.15
2024-03-05T08:52:32.584Z,4.89
2024-03-05T08:54:59.394Z,3.84
2024-03-05T08:57:27.353Z,4.29
2024-03-05T08:59:54.345Z,3.01
2024-03-05T09:02:21.137Z,4.15
2024-03-05T09:04:49.035Z,4.00
2024-03-05T09:07:16.095Z,3.47
2024-03-05T09:09:43.221Z,3.82
2024-03-05T09:12:10.130Z,3.04
2024-03-05T09:14:37.101Z,3.80
2024-03-05T09:17:04.284Z,4.18
2024-03-05T09:19:30.997Z,3.98
2024-03-05T09:21:57.661Z,4.41
2024-03-05T09:24:24.453Z,4.56
2024-03-05T09:26:51.353Z,4.68
2024-03-05T09:29:18.081Z,4.18
2024-03-05T09:31:44.836Z,4.01
2024-03-05T09:34:11.606Z,4.20
2024-03-05T09:36:39.398Z,4.62
2024-03-05T09:39:10.717Z,4.07
2024-03-05T09:41:41.494Z,4.37
2024-03-05T09:44:09.401Z,3.68
2024-03-05T09:46:40.628Z,4.37
2024-03-05T09:49:17.941Z,4.28
2024-03-05T09:51:49.546Z,4.92
2024-03-05T09:54:16.260Z,4.40
2024-03-05T09:56:43.742Z,4.20
2024-03-05T09:59:12.060Z,4.01
2024-03-05T10:01:38.912Z,4.85
2024-03-05T10:04:06.361Z,5.46
2024-03-05T10:06:33.209Z,5.48
2024-03-05T10:08:59.866Z,4.69
2024-03-05T10:11:26.713Z,5.15
2024-03-05T10:13:53.484Z,5.63
2024-03-05T10:16:21.471Z,5.36
2024-03-05T10:18:48.398Z,4.76
2024-03-05T10:21:19.182Z,5.77
2024-03-05T10:23:47.623Z,4.91
2024-03-05T10:26:18.740Z,5.28
2024-03-05T10:28:46.855Z,4.29
2024-03-05T10:31:23.349Z,4.29
2024-03-05T10:33:51.886Z,4.86
2024-03-05T10:36:29.839Z,4.67
2024-03-05T10:38:56.689Z,3.92
2024-03-05T10:41:39.251Z,4.64
2024-03-05T10:44:14.716Z,5.46
2024-03-05T10:46:44.341Z,5.03
2024-03-05T10:49:12.547Z,5.06
2024-03-05T10:51:40.047Z,5.41
2024-03-05T10:54:07.095Z,5.48
2024-03-05T10:56:39.982Z,5.28
2024-03-05T10:59:17.254Z,5.50
2024-03-05T11:01:46.091Z,5.87
2024-03-05T11:04:14.596Z,6.33
2024-03-05T11:06:41.799Z,6.50
2024-03-05T11:09:11.779Z,5.05
2024-03-05T11:11:40.883Z,5.92
2024-03-05T11:14:08.324Z,6.17
2024-03-05T11:16:37.741Z,6.25
2024-03-05T11:19:11.340Z,5.06
2024-03-05T11:21:39.902Z,5.48
2024-03-05T11:24:07.624Z,5.84
2024-03-05T11:26:34.897Z,5.42
2024-03-05T11:29:03.859Z,6.62
2024-03-05T11:31:30.628Z,6.61
2024-03-05T11:34:03.566Z,7.04
2024-03-05T11:36:37.726Z,6.54
2024-03-05T11:39:08.615Z,5.60
2024-03-05T11:41:38.972Z,7.17
2024-03-05T11:44:05.947Z,7.01
2024-03-05T11:46:49.856Z,6.48
2024-03-05T11:49:17.766Z,6.77
2024-03-05T11:51:45.732Z,6.97
2024-03-05T11:54:16.278Z,7.45
2024-03-05T11:56:44.480Z,7.33
2024-03-05T11:59:11.736Z,6.56
2024-03-05T12:01:40.093Z,6.62
2024-03-05T12:04:08.937Z,7.13
2024-03-05T12:06:36.019Z,6.16
2024-03-05T12:09:21.738Z,6.86
2024-03-05T12:12:04.633Z,5.11
2024-03-05T12:14:36.039Z,5.35
2024-03-05T12:17:13.734Z,6.25
2024-03-05T12:19:41.521Z,5.52
2024-03-05T12:22:08.372Z,6.26
2024-03-05T12:24:36.131Z,5.59
2024-03-05T12:27:03.757Z,5.77
2024-03-05T12:29:33.362Z,4.94
2024-03-05T12:32:04.849Z,5.59
2024-03-05T12:34:31.932Z,5.20
2024-03-05T12:36:58.652Z,5.78
2024-03-05T12:39:25.881Z,5.79
2024-03-05T12:42:18.567Z,5.68
2024-03-05T12:44:45.298Z,6.46
2024-03-05T12:47:15.120Z,7.18
2024-03-05T12:49:51.304Z,6.60
2024-03-05T12:52:22.640Z,7.21
2024-03-05T12:55:11.115Z,7.07
2024-03-05T12:57:38.041Z,6.10
2024-03-05T13:00:11.316Z,7.02
2024-03-05T13:02:39.270Z,6.01
2024-03-05T13:05:06.502Z,6.51
2024-03-05T13:07:34.776Z,5.80
2024-03-05T13:10:01.644Z,4.99
2024-03-05T13:12:30.374Z,5.53
2024-03-05T13:14:56.976Z,5.89
2024-03-05T13:17:23.705Z,5.81
2024-03-05T13:19:50.406Z,6.39
2024-03-05T13:22:17.033Z,6.96
2024-03-05T13:24:44.437Z,6.67
2024-03-05T13:27:11.500Z,7.43
2024-03-05T13:29:38.777Z,6.83
2024-03-05T13:32:06.007Z,5.90
2024-03-05T13:34:32.830Z,6.12
2024-03-05T13:37:00.082Z,6.43
2024-03-05T13:39:26.905Z,6.57
2024-03-05T13:41:54.563Z,6.65
2024-03-05T13:44:23.477Z,5.76
2024-03-05T13:46:51.555Z,6.48
2024-03-05T13:49:20.341Z,5.60
2024-03-05T13:51:47.029Z,6.65
2024-03-05T13:54:14.001Z,6.24
2024-03-05T13:56:42.209Z,6.70
2024-03-05T13:59:11.629Z,6.46
2024-03-05T14:01:43.036Z,7.02
2024-03-05T14:04:12.607Z,6.25
2024-03-05T14:06:39.775Z,6.17
2024-03-05T14:09:10.288Z,6.57
2024-03-05T14:11:37.912Z,5.94
2024-03-05T14:14:05.149Z,5.49
2024-03-05T14:16:32.526Z,5.75
2024-03-05T14:19:00.043Z,6.71
2024-03-05T14:21:30.802Z,6.12
2024-03-05T14:23:58.655Z,6.23
2024-03-05T14:26:25.612Z,5.84
2024-03-05T14:28:52.530Z,6.02
2024-03-05T14:31:19.554Z,5.99
2024-03-05T14:33:46.671Z,5.64
2024-03-05T14:36:15.212Z,5.42
2024-03-05T14:38:43.907Z,5.88
2024-03-05T14:41:11.357Z,5.89
2024-03-05T14:43:38.382Z,6.01
2024-03-05T14:46:06.706Z,5.00
2024-03-05T14:48:34.310Z,5.89
2024-03-05T14:51:01.667Z,5.86
2024-03-05T14:53:28.512Z,5.54
2024-03-05T14:55:55.448Z,5.14
2024-03-05T14:58:22.412Z,5.80
2024-03-05T15:00:49.104Z,5.12
2024-03-05T15:03:19.356Z,5.53
2024-03-05T15:05:46.810Z,6.47
2024-03-05T15:08:14.082Z,5.75
2024-03-05T15:10:40.919Z,5.47
2024-03-05T15:13:08.971Z,5.89
2024-03-05T15:15:35.713Z,4.43
2024-03-05T15:18:02.430Z,5.90
2024-03-05T15:20:29.128Z,5.83
2024-03-05T15:22:56.056Z,4.89
2024-03-05T15:25:23.764Z,4.70
2024-03-05T15:28:01.052Z,5.99
2024-03-05T15:30:33.188Z,4.84
2024-03-05T15:33:01.387Z,4.88
2024-03-05T15:35:30.022Z,5.25
2024-03-05T15:37:57.615Z,4.27
2024-03-05T15:40:24.667Z,5.43
2024-03-05T15:42:53.072Z,4.32
2024-03-05T15:45:26.352Z,5.65
2024-03-05T15:47:55.813Z,4.72
2024-03-05T15:50:24.181Z,4.53
2024-03-05T15:52:54.994Z,5.13
2024-03-05T15:55:26.049Z,4.54
2024-03-05T15:58:13.607Z,5.23
2024-03-05T16:00:40.246Z,3.97
2024-03-05T16:03:11.268Z,4.44
2024-03-05T16:05:47.263Z,4.35
2024-03-05T16:08:25.295Z,3.79
2024-03-05T16:10:53.248Z,3.72
2024-03-05T16:13:20.315Z,4.03
2024-03-05T16:15:48.242Z,4.40
2024-03-05T16:18:15.432Z,4.06
2024-03-05T16:20:42.411Z,4.28
2024-03-05T16:23:10.602Z,3.71
2024-03-05T16:25:40.512Z,4.54
2024-03-05T16:28:08.219Z,3.58
2024-03-05T16:30:35.613Z,4.27
2024-03-05T16:33:02.222Z,4.00
2024-03-05T16:35:33.822Z,4.44
2024-03-05T16:38:01.532Z,4.25
2024-03-05T16:40:28.387Z,4.00
2024-03-05T16:42:56.361Z,3.84
2024-03-05T16:45:24.392Z,4.77
2024-03-05T16:47:56.282Z,4.12
2024-03-05T16:50:27.004Z,3.93
2024-03-05T16:52:55.631Z,3.59
2024-03-05T16:55:25.263Z,3.29
2024-03-05T16:57:54.148Z,3.06
2024-03-05T17:00:24.442Z,2.86
2024-03-05T17:02:57.918Z,4.03
2024-03-05T17:05:25.260Z,4.28
2024-03-05T17:07:55.608Z,3.87
2024-03-05T17:10:28.131Z,4.18
2024-03-05T17:12:56.909Z,4.00
2024-03-05T17:15:45.276Z,3.26
2024-03-05T17:18:12.745Z,3.29
2024-03-05T17:20:39.605Z,3.37
2024-03-05T17:23:07.193Z,3.70
2024-03-05T17:25:38.691Z,3.11
2024-03-05T17:28:09.374Z,3.24
2024-03-05T17:30:36.089Z,2.91
2024-03-05T17:33:02.789Z,3.63
2024-03-05T17:35:29.591Z,3.81
2024-03-05T17:37:56.826Z,3.69
2024-03-05T17:40:23.475Z,3.57
2024-03-05T17:42:50.367Z,2.99
2024-03-05T17:45:17.625Z,3.21
2024-03-05T17:47:44.438Z,3.79
2024-03-05T17:50:17.420Z,2.52
2024-03-05T17:52:45.388Z,3.71
2024-03-05T17:55:19.279Z,3.56
2024-03-05T17:57:48.387Z,3.60
2024-03-05T18:00:27.472Z,3.91
2024-03-05T18:02:56.229Z,3.61
2024-03-05T18:05:25.279Z,3.71
2024-03-05T18:07:52.803Z,3.69
2024-03-05T18:10:20.918Z,3.52
2024-03-05T18:12:49.898Z,3.65
2024-03-05T18:15:20.631Z,3.64
2024-03-05T18:17:50.073Z,2.76
2024-03-05T18:20:20.392Z,3.11
2024-03-05T18:22:47.454Z,2.54
2024-03-05T18:25:21.552Z,3.80
2024-03-05T18:27:57.821Z,2.82
2024-03-05T18:30:36.965Z,3.95
2024-03-05T18:33:08.516Z,3.15
2024-03-05T18:35:36.620Z,4.01
2024-03-05T18:38:16.473Z,4.16
2024-03-05T18:40:51.423Z,4.13
2024-03-05T18:43:20.852Z,3.40
2024-03-05T18:45:47.808Z,3.85
2024-03-05T18:48:14.603Z,3.00
2024-03-05T18:50:41.459Z,2.18
2024-03-05T18:53:09.379Z,2.67
2024-03-05T18:55:37.614Z,3.04
2024-03-05T18:58:07.788Z,2.62
2024-03-05T19:00:35.104Z,2.80
2024-03-05T19:03:02.267Z,3.03
2024-03-05T19:05:29.112Z,3.45
2024-03-05T19:07:55.846Z,3.46
2024-03-05T19:10:22.466Z,3.15
2024-03-05T19:12:49.496Z,3.24
2024-03-05T19:15:18.656Z,3.33
2024-03-05T19:17:48.883Z,3.55
2024-03-05T19:20:16.327Z,3.44
2024-03-05T19:22:43.350Z,2.77
2024-03-05T19:25:12.818Z,3.35
2024-03-05T19:27:43.326Z,2.95
2024-03-05T19:30:18.157Z,3.60
2024-03-05T19:32:45.883Z,3.40
2024-03-05T19:35:15.194Z,3.15
2024-03-05T19:37:43.009Z,3.16
2024-03-05T19:40:18.029Z,2.77
2024-03-05T19:42:46.022Z,2.49
2024-03-05T19:45:13.437Z,3.03
2024-03-05T19:47:40.447Z,3.13
2024-03-05T19:50:07.683Z,2.74
2024-03-05T19:52:34.930Z,2.84
2024-03-05T19:55:02.078Z,2.67
2024-03-05T19:57:29.304Z,2.83
2024-03-05T19:59:58.803Z,2.95
2024-03-05T20:02:27.151Z,2.79
2024-03-05T20:04:54.024Z,2.40
2024-03-05T20:07:22.490Z,3.09
2024-03-05T20:09:49.862Z,2.94
2024-03-05T20:12:17.147Z,3.51
2024-03-05T20:14:44.148Z,2.45
2024-03-05T20:17:11.588Z,2.57
2024-03-05T20:19:40.762Z,3.07
2024-03-05T20:22:09.044Z,2.86
2024-03-05T20:24:36.498Z,2.77
2024-03-05T20:27:04.102Z,2.67
2024-03-05T20:29:32.178Z,3.10
2024-03-05T20:31:59.697Z,2.92
2024-03-05T20:34:28.092Z,2.56
2024-03-05T20:36:55.934Z,2.58
2024-03-05T20:39:23.568Z,2.91
2024-03-05T20:41:50.991Z,3.12
2024-03-05T20:44:18.690Z,2.81
2024-03-05T20:46:46.077Z,2.82
2024-03-05T20:49:16.300Z,3.04
2024-03-05T20:51:43.994Z,2.56
2024-03-05T20:54:11.257Z,2.82
2024-03-05T20:56:38.058Z,2.79
2024-03-05T20:59:04.918Z,2.96
2024-03-05T21:01:31.905Z,2.50
2024-03-05T21:04:00.218Z,2.45
2024-03-05T21:06:27.019Z,2.79
2024-03-05T21:08:53.924Z,2.35
2024-03-05T21:11:21.313Z,2.73
2024-03-05T21:13:48.347Z,3.21
2024-03-05T21:16:15.444Z,2.59
2024-03-05T21:18:42.355Z,3.11
2024-03-05T21:21:15.135Z,3.48
2024-03-05T21:23:43.042Z,3.14
2024-03-05T21:26:23.132Z,3.29
2024-03-05T21:28:57.181Z,2.88
2024-03-05T21:31:25.390Z,3.02
2024-03-05T21:33:52.138Z,2.85
2024-03-05T21:36:18.822Z,3.05
2024-03-05T21:38:45.669Z,3.13
2024-03-05T21:41:13.685Z,3.21
2024-03-05T21:43:41.202Z,2.98
2024-03-05T21:46:09.008Z,2.37
2024-03-05T21:48:35.627Z,2.23
2024-03-05T21:51:06.816Z,2.61
2024-03-05T21:53:39.073Z,2.11
2024-03-05T21:56:06.177Z,2.40
2024-03-05T21:58:32.924Z,2.95
2024-03-05T22:00:59.580Z,3.17
2024-03-05T22:03:26.266Z,2.54
2024-03-05T22:05:53.620Z,3.33
2024-03-05T22:08:21.321Z,2.87
2024-03-05T22:10:47.996Z,2.94
2024-03-05T22:13:14.611Z,3.08
2024-03-05T22:15:41.309Z,2.52
2024-03-05T22:18:08.447Z,2.69
2024-03-05T22:20:35.174Z,3.34
2024-03-05T22:23:03.136Z,3.18
2024-03-05T22:25:29.871Z,2.90
2024-03-05T22:27:56.672Z,3.21
2024-03-05T22:30:23.288Z,3.28
2024-03-05T22:32:50.209Z,2.79
2024-03-05T22:35:17.024Z,2.42
2024-03-05T22:37:43.811Z,2.54
2024-03-05T22:40:13.497Z,2.07
2024-03-05T22:42:40.310Z,2.18
2024-03-05T22:45:08.783Z,2.53
2024-03-05T22:47:35.593Z,2.95
2024-03-05T22:50:02.458Z,2.53
2024-03-05T22:52:29.407Z,2.32
2024-03-05T22:54:56.090Z,1.99
2024-03-05T22:57:25.421Z,2.22
2024-03-05T22:59:52.083Z,1.86
2024-03-05T23:02:19.653Z,1.66
2024-03-05T23:04:47.510Z,1.75
2024-03-05T23:07:17.153Z,1.19
2024-03-05T23:09:43.844Z,1.28
2024-03-05T23:12:15.899Z,1.11
2024-03-05T23:14:43.344Z,1.28
2024-03-05T23:17:13.630Z,1.07
2024-03-05T23:19:42.480Z,0.68
2024-03-05T23:22:09.290Z,0.69
2024-03-05T23:24:35.969Z,0.61
2024-03-05T23:27:02.724Z,0.68
2024-03-05T23:29:29.437Z,-0.32
2024-03-05T23:31:56.194Z,0.63
2024-03-05T23:34:22.821Z,0.95
2024-03-05T23:36:49.474Z,0.83
2024-03-05T23:39:16.615Z,0.29
2024-03-05T23:41:45.386Z,0.43
2024-03-05T23:44:12.759Z,0.91
2024-03-05T23:46:39.676Z,0.34
2024-03-05T23:49:06.375Z,0.48
2024-03-05T23:51:33.055Z,0.38
2024-03-05T23:53:59.714Z,0.93
2024-03-05T23:56:26.341Z,0.98
2024-03-05T23:58:53.229Z,0.74
